sensor_id;sensor_type;location;lat;lon;timestamp;pressure;altitude;pressure_sealevel;temperature;humidity
32298;BME280;18782;48.984;8.548;2022-10-30T00:00:12;100344.56;;;14.05;100.00
32298;BME280;18782;48.984;8.548;2022-10-30T00:02:40;100348.84;;;14.03;100.00
32298;BME280;18782;48.984;8.548;2022-10-30T00:05:08;100350.53;;;14.01;100.00
32298;BME280;18782;48.984;8.548;2022-10-30T00:07:35;100349.59;;;13.97;100.00
32298;BME280;18782;48.984;8.548;2022-10-30T00:10:05;100345.28;;;13.98;100.00
32298;BME280;18782;48.984;8.548;2022-10-30T00:12:33;100346.09;;;13.94;100.00
32298;BME280;18782;48.984;8.548;2022-10-30T00:15:01;100340.03;;;13.93;100.00
32298;BME280;18782;48.984;8.548;2022-10-30T00:17:29;100343.41;;;13.88;100.00
32298;BME280;18782;48.984;8.548;2022-10-30T00:19:56;100348.53;;;13.84;100.00
32298;BME280;18782;48.984;8.548;2022-10-30T00:22:24;100349.34;;;13.82;100.00
32298;BME280;18782;48.984;8.548;2022-10-30T00:24:52;100340.69;;;13.80;100.00
32298;BME280;18782;48.984;8.548;2022-10-30T00:27:21;100342.31;;;13.75;100.00
32298;BME280;18782;48.984;8.548;2022-10-30T00:29:48;100331.97;;;13.75;100.00
32298;BME280;18782;48.984;8.548;2022-10-30T00:32:16;100335.41;;;13.74;100.00
32298;BME280;18782;48.984;8.548;2022-10-30T00:34:43;100335.31;;;13.69;100.00
32298;BME280;18782;48.984;8.548;2022-10-30T00:37:11;100332.63;;;13.63;100.00
32298;BME280;18782;48.984;8.548;2022-10-30T00:39:39;100330.81;;;13.59;100.00
32298;BME280;18782;48.984;8.548;2022-10-30T00:42:10;100334.25;;;13.58;100.00
32298;BME280;18782;48.984;8.548;2022-10-30T00:44:44;100335.16;;;13.60;100.00
32298;BME280;18782;48.984;8.548;2022-10-30T00:47:16;100331.72;;;13.61;100.00
32298;BME280;18782;48.984;8.548;2022-10-30T00:49:50;100334.31;;;13.61;100.00
32298;BME280;18782;48.984;8.548;2022-10-30T00:52:22;100338.63;;;13.62;100.00
32298;BME280;18782;48.984;8.548;2022-10-30T00:54:51;100340.41;;;13.63;100.00
32298;BME280;18782;48.984;8.548;2022-10-30T00:57:20;100337.81;;;13.63;100.00
32298;BME280;18782;48.984;8.548;2022-10-30T00:59:49;100337.84;;;13.66;100.00
32298;BME280;18782;48.984;8.548;2022-10-30T01:02:18;100336.09;;;13.65;100.00
32298;BME280;18782;48.984;8.548;2022-10-30T01:04:48;100326.59;;;13.63;100.00
32298;BME280;18782;48.984;8.548;2022-10-30T01:07:17;100337.75;;;13.62;100.00
32298;BME280;18782;48.984;8.548;2022-10-30T01:09:45;100341.19;;;13.59;100.00
32298;BME280;18782;48.984;8.548;2022-10-30T01:12:14;100332.56;;;13.60;100.00
32298;BME280;18782;48.984;8.548;2022-10-30T01:14:44;100335.13;;;13.58;100.00
32298;BME280;18782;48.984;8.548;2022-10-30T01:17:24;100330.75;;;13.56;100.00
32298;BME280;18782;48.984;8.548;2022-10-30T01:20:06;100324.72;;;13.55;100.00
32298;BME280;18782;48.984;8.548;2022-10-30T01:22:46;100329.84;;;13.52;100.00
32298;BME280;18782;48.984;8.548;2022-10-30T01:25:33;100320.38;;;13.53;100.00
32298;BME280;18782;48.984;8.548;2022-10-30T01:28:12;100309.94;;;13.47;100.00
32298;BME280;18782;48.984;8.548;2022-10-30T01:30:54;100315.09;;;13.47;100.00
32298;BME280;18782;48.984;8.548;2022-10-30T01:36:00;100315.91;;;13.44;100.00
32298;BME280;18782;48.984;8.548;2022-10-30T01:38:35;100304.59;;;13.41;100.00
32298;BME280;18782;48.984;8.548;2022-10-30T01:41:06;100313.25;;;13.41;100.00
32298;BME280;18782;48.984;8.548;2022-10-30T01:43:35;100313.22;;;13.40;100.00
32298;BME280;18782;48.984;8.548;2022-10-30T01:46:29;100309.78;;;13.41;100.00
32298;BME280;18782;48.984;8.548;2022-10-30T01:49:09;100308.03;;;13.40;100.00
32298;BME280;18782;48.984;8.548;2022-10-30T01:51:50;100306.31;;;13.39;100.00
32298;BME280;18782;48.984;8.548;2022-10-30T01:54:29;100309.75;;;13.38;100.00
32298;BME280;18782;48.984;8.548;2022-10-30T01:57:06;100308.88;;;13.37;100.00
32298;BME280;18782;48.984;8.548;2022-10-30T01:59:42;100312.28;;;13.36;100.00
32298;BME280;18782;48.984;8.548;2022-10-30T02:02:13;100314.91;;;13.38;100.00
32298;BME280;18782;48.984;8.548;2022-10-30T02:04:41;100306.25;;;13.36;100.00
32298;BME280;18782;48.984;8.548;2022-10-30T02:07:10;100316.59;;;13.36;100.00
32298;BME280;18782;48.984;8.548;2022-10-30T02:09:49;100314.84;;;13.35;100.00
32298;BME280;18782;48.984;8.548;2022-10-30T02:12:17;100313.03;;;13.30;100.00
32298;BME280;18782;48.984;8.548;2022-10-30T02:14:48;100315.59;;;13.27;100.00
32298;BME280;18782;48.984;8.548;2022-10-30T02:17:17;100312.06;;;13.25;100.00
32298;BME280;18782;48.984;8.548;2022-10-30T02:19:48;100309.50;;;13.25;100.00
32298;BME280;18782;48.984;8.548;2022-10-30T02:22:17;100312.88;;;13.21;100.00
32298;BME280;18782;48.984;8.548;2022-10-30T02:24:45;100310.16;;;13.17;100.00
32298;BME280;18782;48.984;8.548;2022-10-30T02:27:13;100298.09;;;13.16;100.00
32298;BME280;18782;48.984;8.548;2022-10-30T02:29:41;100300.53;;;13.10;100.00
32298;BME280;18782;48.984;8.548;2022-10-30T02:32:09;100290.94;;;13.02;100.00
32298;BME280;18782;48.984;8.548;2022-10-30T02:34:36;100296.81;;;12.95;100.00
32298;BME280;18782;48.984;8.548;2022-10-30T02:37:04;100301.91;;;12.91;100.00
32298;BME280;18782;48.984;8.548;2022-10-30T02:39:33;100299.00;;;12.75;100.00
32298;BME280;18782;48.984;8.548;2022-10-30T02:42:02;100302.47;;;12.77;100.00
32298;BME280;18782;48.984;8.548;2022-10-30T02:44:31;100310.16;;;12.74;100.00
32298;BME280;18782;48.984;8.548;2022-10-30T02:46:58;100304.91;;;12.71;100.00
32298;BME280;18782;48.984;8.548;2022-10-30T02:49:26;100306.56;;;12.68;100.00
32298;BME280;18782;48.984;8.548;2022-10-30T02:51:54;100304.78;;;12.65;100.00
32298;BME280;18782;48.984;8.548;2022-10-30T02:54:22;100308.16;;;12.63;100.00
32298;BME280;18782;48.984;8.548;2022-10-30T02:56:51;100301.28;;;12.63;100.00
32298;BME280;18782;48.984;8.548;2022-10-30T02:59:20;100302.19;;;12.64;100.00
32298;BME280;18782;48.984;8.548;2022-10-30T03:01:49;100296.91;;;12.59;100.00
32298;BME280;18782;48.984;8.548;2022-10-30T03:04:17;100296.88;;;12.58;100.00
32298;BME280;18782;48.984;8.548;2022-10-30T03:06:44;100294.25;;;12.56;100.00
32298;BME280;18782;48.984;8.548;2022-10-30T03:09:12;100300.19;;;12.52;100.00
32298;BME280;18782;48.984;8.548;2022-10-30T03:11:39;100295.81;;;12.48;100.00
32298;BME280;18782;48.984;8.548;2022-10-30T03:14:11;100297.56;;;12.49;100.00
32298;BME280;18782;48.984;8.548;2022-10-30T03:16:38;100297.47;;;12.46;100.00
32298;BME280;18782;48.984;8.548;2022-10-30T03:19:06;100293.13;;;12.43;100.00
32298;BME280;18782;48.984;8.548;2022-10-30T03:21:33;100305.97;;;12.42;100.00
32298;BME280;18782;48.984;8.548;2022-10-30T03:24:01;100311.00;;;12.36;100.00
32298;BME280;18782;48.984;8.548;2022-10-30T03:26:28;100301.50;;;12.33;100.00
32298;BME280;18782;48.984;8.548;2022-10-30T03:29:03;100304.94;;;12.32;100.00
32298;BME280;18782;48.984;8.548;2022-10-30T03:31:32;100311.75;;;12.30;100.00
32298;BME280;18782;48.984;8.548;2022-10-30T03:34:11;100307.44;;;12.31;100.00
32298;BME280;18782;48.984;8.548;2022-10-30T03:36:40;100310.00;;;12.29;100.00
32298;BME280;18782;48.984;8.548;2022-10-30T03:39:08;100305.63;;;12.26;100.00
32298;BME280;18782;48.984;8.548;2022-10-30T03:41:36;100297.00;;;12.24;100.00
32298;BME280;18782;48.984;8.548;2022-10-30T03:44:04;100302.91;;;12.20;100.00
32298;BME280;18782;48.984;8.548;2022-10-30T03:46:33;100303.69;;;12.16;100.00
32298;BME280;18782;48.984;8.548;2022-10-30T03:49:14;100301.88;;;12.12;100.00
32298;BME280;18782;48.984;8.548;2022-10-30T03:51:42;100304.34;;;12.08;100.00
32298;BME280;18782;48.984;8.548;2022-10-30T03:54:09;100303.47;;;12.07;100.00
32298;BME280;18782;48.984;8.548;2022-10-30T03:56:37;100311.97;;;12.03;100.00
32298;BME280;18782;48.984;8.548;2022-10-30T03:59:08;100308.50;;;12.01;100.00
32298;BME280;18782;48.984;8.548;2022-10-30T04:01:39;100308.50;;;12.01;100.00
32298;BME280;18782;48.984;8.548;2022-10-30T04:04:07;100321.28;;;11.96;100.00
32298;BME280;18782;48.984;8.548;2022-10-30T04:06:35;100316.97;;;11.97;100.00
32298;BME280;18782;48.984;8.548;2022-10-30T04:09:03;100310.88;;;11.93;100.00
32298;BME280;18782;48.984;8.548;2022-10-30T04:11:35;100306.53;;;11.92;100.00
32298;BME280;18782;48.984;8.548;2022-10-30T04:14:03;100316.84;;;11.91;100.00
32298;BME280;18782;48.984;8.548;2022-10-30T04:16:31;100315.84;;;11.86;100.00
32298;BME280;18782;48.984;8.548;2022-10-30T04:19:01;100308.84;;;11.82;100.00
32298;BME280;18782;48.984;8.548;2022-10-30T04:21:29;100307.91;;;11.80;100.00
32298;BME280;18782;48.984;8.548;2022-10-30T04:23:56;100312.09;;;11.74;100.00
32298;BME280;18782;48.984;8.548;2022-10-30T04:26:27;100305.16;;;11.73;100.00
32298;BME280;18782;48.984;8.548;2022-10-30T04:28:55;100308.59;;;11.72;100.00
32298;BME280;18782;48.984;8.548;2022-10-30T04:31:23;100300.78;;;11.69;100.00
32298;BME280;18782;48.984;8.548;2022-10-30T04:33:50;100310.13;;;11.66;100.00
32298;BME280;18782;48.984;8.548;2022-10-30T04:36:21;100298.03;;;11.63;100.00
32298;BME280;18782;48.984;8.548;2022-10-30T04:38:55;100302.25;;;11.60;100.00
32298;BME280;18782;48.984;8.548;2022-10-30T04:41:26;100298.72;;;11.56;100.00
32298;BME280;18782;48.984;8.548;2022-10-30T04:44:01;100292.66;;;11.54;100.00
32298;BME280;18782;48.984;8.548;2022-10-30T04:46:30;100295.13;;;11.51;100.00
32298;BME280;18782;48.984;8.548;2022-10-30T04:49:05;100298.56;;;11.50;100.00
32298;BME280;18782;48.984;8.548;2022-10-30T04:51:35;100291.56;;;11.46;100.00
32298;BME280;18782;48.984;8.548;2022-10-30T04:54:04;100287.16;;;11.42;100.00
32298;BME280;18782;48.984;8.548;2022-10-30T04:56:33;100288.75;;;11.37;100.00
32298;BME280;18782;48.984;8.548;2022-10-30T04:59:01;100296.47;;;11.37;100.00
32298;BME280;18782;48.984;8.548;2022-10-30T05:01:29;100286.09;;;11.34;100.00
32298;BME280;18782;48.984;8.548;2022-10-30T05:03:57;100289.41;;;11.30;100.00
32298;BME280;18782;48.984;8.548;2022-10-30T05:06:28;100284.16;;;11.27;100.00
32298;BME280;18782;48.984;8.548;2022-10-30T05:08:58;100285.88;;;11.26;100.00
32298;BME280;18782;48.984;8.548;2022-10-30T05:11:33;100293.56;;;11.24;100.00
32298;BME280;18782;48.984;8.548;2022-10-30T05:14:01;100282.38;;;11.22;100.00
32298;BME280;18782;48.984;8.548;2022-10-30T05:16:28;100279.78;;;11.22;100.00
32298;BME280;18782;48.984;8.548;2022-10-30T05:18:58;100291.75;;;11.20;100.00
32298;BME280;18782;48.984;8.548;2022-10-30T05:21:26;100289.16;;;11.20;100.00
32298;BME280;18782;48.984;8.548;2022-10-30T05:23:54;100285.69;;;11.18;100.00
32298;BME280;18782;48.984;8.548;2022-10-30T05:26:24;100283.94;;;11.17;100.00
32298;BME280;18782;48.984;8.548;2022-10-30T05:28:52;100282.03;;;11.12;100.00
32298;BME280;18782;48.984;8.548;2022-10-30T05:31:19;100282.00;;;11.10;100.00
32298;BME280;18782;48.984;8.548;2022-10-30T05:34:16;100274.25;;;11.09;100.00
32298;BME280;18782;48.984;8.548;2022-10-30T05:36:46;100269.88;;;11.06;100.00
32298;BME280;18782;48.984;8.548;2022-10-30T05:39:15;100268.06;;;11.02;100.00
32298;BME280;18782;48.984;8.548;2022-10-30T05:41:47;100283.28;;;10.94;100.00
32298;BME280;18782;48.984;8.548;2022-10-30T05:44:16;100279.84;;;10.94;100.00
32298;BME280;18782;48.984;8.548;2022-10-30T05:47:04;100275.56;;;10.94;100.00
32298;BME280;18782;48.984;8.548;2022-10-30T05:49:33;100277.31;;;10.95;100.00
32298;BME280;18782;48.984;8.548;2022-10-30T05:52:04;100278.09;;;10.93;100.00
32298;BME280;18782;48.984;8.548;2022-10-30T05:54:32;100280.69;;;10.93;100.00
32298;BME280;18782;48.984;8.548;2022-10-30T05:57:28;100295.19;;;10.91;100.00
32298;BME280;18782;48.984;8.548;2022-10-30T05:59:56;100297.13;;;10.98;100.00
32298;BME280;18782;48.984;8.548;2022-10-30T06:02:24;100307.72;;;11.07;100.00
32298;BME280;18782;48.984;8.548;2022-10-30T06:04:51;100301.63;;;11.05;100.00
32298;BME280;18782;48.984;8.548;2022-10-30T06:07:19;100313.75;;;11.09;100.00
32298;BME280;18782;48.984;8.548;2022-10-30T06:09:47;100298.22;;;11.06;100.00
32298;BME280;18782;48.984;8.548;2022-10-30T06:12:34;100311.03;;;11.03;100.00
32298;BME280;18782;48.984;8.548;2022-10-30T06:15:11;100303.25;;;11.02;100.00
32298;BME280;18782;48.984;8.548;2022-10-30T06:17:38;100311.03;;;11.03;100.00
32298;BME280;18782;48.984;8.548;2022-10-30T06:20:22;100317.00;;;11.02;100.00
32298;BME280;18782;48.984;8.548;2022-10-30T06:23:17;100315.19;;;11.00;100.00
32298;BME280;18782;48.984;8.548;2022-10-30T06:25:51;100305.78;;;11.00;100.00
32298;BME280;18782;48.984;8.548;2022-10-30T06:28:41;100318.72;;;11.02;100.00
32298;BME280;18782;48.984;8.548;2022-10-30T06:31:10;100312.88;;;11.07;100.00
32298;BME280;18782;48.984;8.548;2022-10-30T06:33:38;100321.75;;;11.18;100.00
32298;BME280;18782;48.984;8.548;2022-10-30T06:36:06;100318.84;;;11.38;100.00
32298;BME280;18782;48.984;8.548;2022-10-30T06:38:35;100311.16;;;11.39;98.56
32298;BME280;18782;48.984;8.548;2022-10-30T06:41:03;100315.34;;;11.36;99.15
32298;BME280;18782;48.984;8.548;2022-10-30T06:43:50;100318.66;;;11.32;98.90
32298;BME280;18782;48.984;8.548;2022-10-30T06:46:21;100323.81;;;11.32;99.74
32298;BME280;18782;48.984;8.548;2022-10-30T06:48:56;100333.22;;;11.30;98.58
32298;BME280;18782;48.984;8.548;2022-10-30T06:51:24;100324.53;;;11.26;98.58
32298;BME280;18782;48.984;8.548;2022-10-30T06:53:53;100329.56;;;11.21;99.03
32298;BME280;18782;48.984;8.548;2022-10-30T06:56:38;100332.06;;;11.18;98.94
32298;BME280;18782;48.984;8.548;2022-10-30T06:59:35;100330.94;;;11.09;99.21
32298;BME280;18782;48.984;8.548;2022-10-30T07:02:22;100324.66;;;11.01;99.66
32298;BME280;18782;48.984;8.548;2022-10-30T07:04:55;100319.47;;;10.99;100.00
32298;BME280;18782;48.984;8.548;2022-10-30T07:07:22;100326.47;;;11.03;99.98
32298;BME280;18782;48.984;8.548;2022-10-30T07:09:50;100333.63;;;11.13;100.00
32298;BME280;18782;48.984;8.548;2022-10-30T07:12:24;100337.13;;;11.15;100.00
32298;BME280;18782;48.984;8.548;2022-10-30T07:15:11;100329.50;;;11.18;100.00
32298;BME280;18782;48.984;8.548;2022-10-30T07:17:52;100332.13;;;11.21;100.00
32298;BME280;18782;48.984;8.548;2022-10-30T07:20:22;100327.19;;;11.28;100.00
32298;BME280;18782;48.984;8.548;2022-10-30T07:22:50;100330.69;;;11.31;100.00
32298;BME280;18782;48.984;8.548;2022-10-30T07:25:18;100334.22;;;11.35;100.00
32298;BME280;18782;48.984;8.548;2022-10-30T07:27:55;100336.22;;;11.45;100.00
32298;BME280;18782;48.984;8.548;2022-10-30T07:30:32;100334.72;;;11.53;100.00
32298;BME280;18782;48.984;8.548;2022-10-30T07:33:35;100335.84;;;11.63;100.00
32298;BME280;18782;48.984;8.548;2022-10-30T07:36:14;100337.75;;;11.70;100.00
32298;BME280;18782;48.984;8.548;2022-10-30T07:38:49;100341.41;;;11.80;100.00
32298;BME280;18782;48.984;8.548;2022-10-30T07:41:28;100340.81;;;11.87;100.00
32298;BME280;18782;48.984;8.548;2022-10-30T07:44:31;100341.03;;;11.96;100.00
32298;BME280;18782;48.984;8.548;2022-10-30T07:47:13;100333.50;;;12.05;100.00
32298;BME280;18782;48.984;8.548;2022-10-30T07:49:53;100337.16;;;12.13;100.00
32298;BME280;18782;48.984;8.548;2022-10-30T07:52:20;100333.34;;;12.73;100.00
32298;BME280;18782;48.984;8.548;2022-10-30T07:54:50;100345.09;;;12.98;100.00
32298;BME280;18782;48.984;8.548;2022-10-30T07:57:36;100340.59;;;13.28;100.00
32298;BME280;18782;48.984;8.548;2022-10-30T08:00:34;100341.94;;;13.53;100.00
32298;BME280;18782;48.984;8.548;2022-10-30T08:03:16;100345.00;;;13.79;100.00
32298;BME280;18782;48.984;8.548;2022-10-30T08:06:03;100336.84;;;14.08;99.03
32298;BME280;18782;48.984;8.548;2022-10-30T08:08:33;100344.09;;;14.29;97.58
32298;BME280;18782;48.984;8.548;2022-10-30T08:11:20;100346.47;;;14.71;94.82
32298;BME280;18782;48.984;8.548;2022-10-30T08:13:48;100342.13;;;14.67;90.26
32298;BME280;18782;48.984;8.548;2022-10-30T08:16:16;100340.56;;;14.81;92.99
32298;BME280;18782;48.984;8.548;2022-10-30T08:18:45;100340.69;;;14.89;91.25
32298;BME280;18782;48.984;8.548;2022-10-30T08:21:13;100335.56;;;14.94;91.66
32298;BME280;18782;48.984;8.548;2022-10-30T08:23:52;100339.91;;;14.98;90.40
32298;BME280;18782;48.984;8.548;2022-10-30T08:26:20;100336.44;;;14.96;90.05
32298;BME280;18782;48.984;8.548;2022-10-30T08:28:48;100336.56;;;15.05;90.69
32298;BME280;18782;48.984;8.548;2022-10-30T08:31:16;100335.00;;;15.19;91.84
32298;BME280;18782;48.984;8.548;2022-10-30T08:34:13;100336.81;;;15.26;90.26
32298;BME280;18782;48.984;8.548;2022-10-30T08:36:53;100330.94;;;15.41;90.53
32298;BME280;18782;48.984;8.548;2022-10-30T08:39:21;100331.97;;;15.60;89.65
32298;BME280;18782;48.984;8.548;2022-10-30T08:41:58;100339.94;;;15.72;90.07
32298;BME280;18782;48.984;8.548;2022-10-30T08:44:32;100339.31;;;16.01;89.79
32298;BME280;18782;48.984;8.548;2022-10-30T08:47:18;100341.31;;;16.29;85.99
32298;BME280;18782;48.984;8.548;2022-10-30T08:49:47;100343.13;;;16.42;86.72
32298;BME280;18782;48.984;8.548;2022-10-30T08:52:19;100339.72;;;16.50;86.07
32298;BME280;18782;48.984;8.548;2022-10-30T08:54:52;100343.19;;;16.52;84.40
32298;BME280;18782;48.984;8.548;2022-10-30T08:57:22;100336.25;;;16.54;83.63
32298;BME280;18782;48.984;8.548;2022-10-30T08:59:54;100341.53;;;16.63;84.28
32298;BME280;18782;48.984;8.548;2022-10-30T09:02:41;100342.47;;;16.74;85.00
32298;BME280;18782;48.984;8.548;2022-10-30T09:05:44;100340.84;;;16.94;83.16
32298;BME280;18782;48.984;8.548;2022-10-30T09:08:30;100327.91;;;17.10;82.48
32298;BME280;18782;48.984;8.548;2022-10-30T09:11:10;100336.63;;;17.18;80.94
32298;BME280;18782;48.984;8.548;2022-10-30T09:13:38;100330.59;;;17.25;80.07
32298;BME280;18782;48.984;8.548;2022-10-30T09:16:07;100335.84;;;17.40;80.07
32298;BME280;18782;48.984;8.548;2022-10-30T09:18:36;100330.66;;;17.56;79.13
32298;BME280;18782;48.984;8.548;2022-10-30T09:21:05;100333.31;;;17.74;79.51
32298;BME280;18782;48.984;8.548;2022-10-30T09:23:41;100332.50;;;17.98;78.93
32298;BME280;18782;48.984;8.548;2022-10-30T09:26:28;100335.97;;;18.20;79.82
32298;BME280;18782;48.984;8.548;2022-10-30T09:29:18;100336.78;;;18.46;77.89
32298;BME280;18782;48.984;8.548;2022-10-30T09:31:54;100328.94;;;18.63;76.79
32298;BME280;18782;48.984;8.548;2022-10-30T09:34:24;100326.28;;;18.89;76.87
32298;BME280;18782;48.984;8.548;2022-10-30T09:36:59;100332.31;;;19.13;73.99
32298;BME280;18782;48.984;8.548;2022-10-30T09:39:29;100329.59;;;19.31;72.99
32298;BME280;18782;48.984;8.548;2022-10-30T09:42:14;100333.00;;;19.45;72.46
32298;BME280;18782;48.984;8.548;2022-10-30T09:45:06;100332.88;;;19.74;70.66
32298;BME280;18782;48.984;8.548;2022-10-30T09:48:18;100335.19;;;20.10;70.67
32298;BME280;18782;48.984;8.548;2022-10-30T09:51:04;100336.06;;;20.12;71.06
32298;BME280;18782;48.984;8.548;2022-10-30T09:53:44;100340.19;;;20.36;72.53
32298;BME280;18782;48.984;8.548;2022-10-30T09:56:26;100335.69;;;20.54;70.36
32298;BME280;18782;48.984;8.548;2022-10-30T09:59:06;100328.47;;;20.78;69.33
32298;BME280;18782;48.984;8.548;2022-10-30T10:01:43;100333.31;;;21.11;67.20
32298;BME280;18782;48.984;8.548;2022-10-30T10:04:20;100333.03;;;21.34;66.91
32298;BME280;18782;48.984;8.548;2022-10-30T10:07:15;100338.09;;;21.48;64.71
32298;BME280;18782;48.984;8.548;2022-10-30T10:10:06;100329.22;;;21.58;64.99
32298;BME280;18782;48.984;8.548;2022-10-30T10:12:48;100331.47;;;21.81;64.23
32298;BME280;18782;48.984;8.548;2022-10-30T10:15:31;100329.66;;;21.86;62.07
32298;BME280;18782;48.984;8.548;2022-10-30T10:18:01;100325.09;;;21.98;62.80
32298;BME280;18782;48.984;8.548;2022-10-30T10:20:34;100325.78;;;22.12;61.89
32298;BME280;18782;48.984;8.548;2022-10-30T10:23:11;100325.78;;;22.13;61.11
32298;BME280;18782;48.984;8.548;2022-10-30T10:25:47;100325.41;;;22.35;61.95
32298;BME280;18782;48.984;8.548;2022-10-30T10:28:36;100325.69;;;22.64;61.27
32298;BME280;18782;48.984;8.548;2022-10-30T10:31:18;100319.16;;;22.87;60.17
32298;BME280;18782;48.984;8.548;2022-10-30T10:34:00;100322.34;;;23.04;58.68
32298;BME280;18782;48.984;8.548;2022-10-30T10:36:42;100307.34;;;23.09;57.91
32298;BME280;18782;48.984;8.548;2022-10-30T10:39:23;100317.66;;;23.18;56.27
32298;BME280;18782;48.984;8.548;2022-10-30T10:42:03;100319.72;;;23.04;52.84
32298;BME280;18782;48.984;8.548;2022-10-30T10:44:44;100300.28;;;23.11;52.38
32298;BME280;18782;48.984;8.548;2022-10-30T10:47:35;100307.66;;;23.36;54.29
32298;BME280;18782;48.984;8.548;2022-10-30T10:50:17;100313.81;;;23.35;54.59
32298;BME280;18782;48.984;8.548;2022-10-30T10:52:49;100304.06;;;23.38;56.07
32298;BME280;18782;48.984;8.548;2022-10-30T10:55:21;100305.78;;;23.41;53.66
32298;BME280;18782;48.984;8.548;2022-10-30T10:57:56;100302.19;;;23.45;52.98
32298;BME280;18782;48.984;8.548;2022-10-30T11:00:25;100297.75;;;23.47;53.13
32298;BME280;18782;48.984;8.548;2022-10-30T11:02:59;100292.34;;;23.55;54.20
32298;BME280;18782;48.984;8.548;2022-10-30T11:05:32;100292.47;;;23.87;52.85
32298;BME280;18782;48.984;8.548;2022-10-30T11:08:09;100294.53;;;24.09;51.80
32298;BME280;18782;48.984;8.548;2022-10-30T11:10:38;100296.16;;;24.14;50.94
32298;BME280;18782;48.984;8.548;2022-10-30T11:13:09;100301.50;;;24.45;52.22
32298;BME280;18782;48.984;8.548;2022-10-30T11:15:46;100292.19;;;24.96;50.03
32298;BME280;18782;48.984;8.548;2022-10-30T11:18:16;100288.16;;;25.43;48.90
32298;BME280;18782;48.984;8.548;2022-10-30T11:20:54;100275.25;;;25.62;47.72
32298;BME280;18782;48.984;8.548;2022-10-30T11:23:30;100276.94;;;25.65;46.77
32298;BME280;18782;48.984;8.548;2022-10-30T11:25:59;100276.81;;;25.96;46.37
32298;BME280;18782;48.984;8.548;2022-10-30T11:28:34;100279.50;;;26.21;46.24
32298;BME280;18782;48.984;8.548;2022-10-30T11:31:17;100280.31;;;26.48;46.41
32298;BME280;18782;48.984;8.548;2022-10-30T11:33:44;100278.16;;;26.59;46.43
32298;BME280;18782;48.984;8.548;2022-10-30T11:36:13;100281.47;;;26.88;44.13
32298;BME280;18782;48.984;8.548;2022-10-30T11:38:42;100272.06;;;26.80;44.49
32298;BME280;18782;48.984;8.548;2022-10-30T11:41:10;100270.88;;;26.89;46.22
32298;BME280;18782;48.984;8.548;2022-10-30T11:43:40;100277.13;;;26.87;43.59
32298;BME280;18782;48.984;8.548;2022-10-30T11:46:19;100275.31;;;26.89;44.10
32298;BME280;18782;48.984;8.548;2022-10-30T11:48:49;100278.63;;;26.94;45.48
32298;BME280;18782;48.984;8.548;2022-10-30T11:51:33;100265.19;;;26.76;44.46
32298;BME280;18782;48.984;8.548;2022-10-30T11:54:01;100269.97;;;26.90;43.65
32298;BME280;18782;48.984;8.548;2022-10-30T11:56:30;100267.41;;;26.87;44.00
32298;BME280;18782;48.984;8.548;2022-10-30T11:59:01;100267.81;;;26.76;45.49
32298;BME280;18782;48.984;8.548;2022-10-30T12:01:31;100273.47;;;26.91;45.71
32298;BME280;18782;48.984;8.548;2022-10-30T12:04:14;100274.84;;;27.01;44.49
32298;BME280;18782;48.984;8.548;2022-10-30T12:06:52;100267.03;;;26.74;44.26
32298;BME280;18782;48.984;8.548;2022-10-30T12:09:21;100275.16;;;26.92;44.04
32298;BME280;18782;48.984;8.548;2022-10-30T12:11:49;100260.63;;;27.03;44.15
32298;BME280;18782;48.984;8.548;2022-10-30T12:14:20;100262.97;;;27.35;42.22
32298;BME280;18782;48.984;8.548;2022-10-30T12:16:50;100261.31;;;27.54;41.81
32298;BME280;18782;48.984;8.548;2022-10-30T12:19:19;100261.47;;;27.73;40.51
32298;BME280;18782;48.984;8.548;2022-10-30T12:21:50;100260.19;;;27.81;41.36
32298;BME280;18782;48.984;8.548;2022-10-30T12:24:28;100254.38;;;27.73;42.93
32298;BME280;18782;48.984;8.548;2022-10-30T12:27:00;100252.75;;;27.69;43.89
32298;BME280;18782;48.984;8.548;2022-10-30T12:29:39;100249.09;;;27.73;41.86
32298;BME280;18782;48.984;8.548;2022-10-30T12:32:37;100250.47;;;27.60;44.12
32298;BME280;18782;48.984;8.548;2022-10-30T12:35:14;100251.41;;;27.59;43.89
32298;BME280;18782;48.984;8.548;2022-10-30T12:37:45;100237.31;;;27.80;43.27
32298;BME280;18782;48.984;8.548;2022-10-30T12:40:17;100243.16;;;27.67;43.43
32298;BME280;18782;48.984;8.548;2022-10-30T12:42:50;100242.44;;;27.63;42.56
32298;BME280;18782;48.984;8.548;2022-10-30T12:45:27;100238.53;;;27.73;44.04
32298;BME280;18782;48.984;8.548;2022-10-30T12:48:00;100237.00;;;27.66;43.38
32298;BME280;18782;48.984;8.548;2022-10-30T12:50:35;100241.44;;;27.88;42.70
32298;BME280;18782;48.984;8.548;2022-10-30T12:53:09;100247.34;;;27.94;43.07
32298;BME280;18782;48.984;8.548;2022-10-30T12:55:45;100240.00;;;28.21;42.37
32298;BME280;18782;48.984;8.548;2022-10-30T12:58:20;100233.25;;;28.34;41.08
32298;BME280;18782;48.984;8.548;2022-10-30T13:00:56;100224.38;;;28.15;41.85
32298;BME280;18782;48.984;8.548;2022-10-30T13:03:28;100231.97;;;28.23;41.08
32298;BME280;18782;48.984;8.548;2022-10-30T13:06:00;100219.09;;;28.36;42.94
32298;BME280;18782;48.984;8.548;2022-10-30T13:08:31;100226.56;;;28.26;41.35
32298;BME280;18782;48.984;8.548;2022-10-30T13:11:03;100220.22;;;28.69;39.59
32298;BME280;18782;48.984;8.548;2022-10-30T13:13:36;100222.22;;;28.83;39.22
32298;BME280;18782;48.984;8.548;2022-10-30T13:16:10;100221.47;;;28.42;40.43
32298;BME280;18782;48.984;8.548;2022-10-30T13:18:40;100221.31;;;28.45;40.53
32298;BME280;18782;48.984;8.548;2022-10-30T13:21:19;100220.19;;;28.50;40.58